CMB862 Details

Departure: Keflavík International Airport (BIKF)
Arrival: Norfolk Naval Station (Chambers Field) (KNGU)
Route: RALOV1D RALOV RAKIS 6235N N6040 5944N 5650N YAY J580 YQY YQI J585 ACK J62 RIFLE J174 SWL RAPTR
Notes: USTRANSCOM CONTRACT FLIGHT


Current Weather Information
BIKF 260000Z 22027G38KT 9999 VCSH SCT013 BKN020 06/04 Q1001 REDZ
KNGU 252359Z 07013G21KT 4SM -RA BR FEW047 BKN055 OVC085 11/09 A2994 RMK AO2 SLP138 OCNL LTGICCC DSNT SE T1 SET TSB22TSE27TSB38TSE43 P0013 60016 T01060089 10217 20106 53008